sensor_id;sensor_type;location;lat;lon;timestamp;temperature;humidity
59975;DHT22;62136;-35.664;-63.766;2023-02-26T00:02:15;30.50;33.80
59975;DHT22;62136;-35.664;-63.766;2023-02-26T00:04:43;30.40;33.70
59975;DHT22;62136;-35.664;-63.766;2023-02-26T00:07:20;30.40;33.70
59975;DHT22;62136;-35.664;-63.766;2023-02-26T00:09:48;30.40;33.70
59975;DHT22;62136;-35.664;-63.766;2023-02-26T00:12:16;30.40;33.70
59975;DHT22;62136;-35.664;-63.766;2023-02-26T00:14:44;30.40;33.80
59975;DHT22;62136;-35.664;-63.766;2023-02-26T00:19:54;30.30;33.80
59975;DHT22;62136;-35.664;-63.766;2023-02-26T00:22:22;30.30;33.80
59975;DHT22;62136;-35.664;-63.766;2023-02-26T00:24:49;30.30;33.90
59975;DHT22;62136;-35.664;-63.766;2023-02-26T00:27:16;30.30;33.90
59975;DHT22;62136;-35.664;-63.766;2023-02-26T00:29:43;30.20;33.90
59975;DHT22;62136;-35.664;-63.766;2023-02-26T00:32:11;30.20;33.80
59975;DHT22;62136;-35.664;-63.766;2023-02-26T00:34:38;30.20;33.90
59975;DHT22;62136;-35.664;-63.766;2023-02-26T00:42:24;30.20;33.90
59975;DHT22;62136;-35.664;-63.766;2023-02-26T00:44:52;30.20;34.00
59975;DHT22;62136;-35.664;-63.766;2023-02-26T00:55:15;30.10;34.00
59975;DHT22;62136;-35.664;-63.766;2023-02-26T00:57:42;30.10;34.00
59975;DHT22;62136;-35.664;-63.766;2023-02-26T01:00:10;30.10;34.10
59975;DHT22;62136;-35.664;-63.766;2023-02-26T01:02:38;30.10;34.10
59975;DHT22;62136;-35.664;-63.766;2023-02-26T01:05:06;30.10;34.20
59975;DHT22;62136;-35.664;-63.766;2023-02-26T01:10:24;30.00;34.20
59975;DHT22;62136;-35.664;-63.766;2023-02-26T01:12:52;30.00;34.20
59975;DHT22;62136;-35.664;-63.766;2023-02-26T01:15:19;29.90;34.20
59975;DHT22;62136;-35.664;-63.766;2023-02-26T01:18:12;29.90;34.20
59975;DHT22;62136;-35.664;-63.766;2023-02-26T01:20:48;29.90;34.30
59975;DHT22;62136;-35.664;-63.766;2023-02-26T01:23:24;29.90;34.40
59975;DHT22;62136;-35.664;-63.766;2023-02-26T01:26:02;29.90;34.30
59975;DHT22;62136;-35.664;-63.766;2023-02-26T01:28:32;29.90;34.40
59975;DHT22;62136;-35.664;-63.766;2023-02-26T01:31:02;29.90;34.40
59975;DHT22;62136;-35.664;-63.766;2023-02-26T01:33:54;29.90;34.40
59975;DHT22;62136;-35.664;-63.766;2023-02-26T01:36:30;29.90;34.40
59975;DHT22;62136;-35.664;-63.766;2023-02-26T01:39:19;29.80;34.40
59975;DHT22;62136;-35.664;-63.766;2023-02-26T01:41:59;29.80;34.40
59975;DHT22;62136;-35.664;-63.766;2023-02-26T01:50:26;29.70;34.50
59975;DHT22;62136;-35.664;-63.766;2023-02-26T01:55:36;29.70;34.60
59975;DHT22;62136;-35.664;-63.766;2023-02-26T01:58:03;29.70;35.00
59975;DHT22;62136;-35.664;-63.766;2023-02-26T02:00:31;29.70;34.60
59975;DHT22;62136;-35.664;-63.766;2023-02-26T02:02:58;29.60;34.60
59975;DHT22;62136;-35.664;-63.766;2023-02-26T02:06:21;29.70;35.10
59975;DHT22;62136;-35.664;-63.766;2023-02-26T02:08:29;29.70;34.70
59975;DHT22;62136;-35.664;-63.766;2023-02-26T02:10:58;29.60;34.70
59975;DHT22;62136;-35.664;-63.766;2023-02-26T02:31:47;29.40;34.80
59975;DHT22;62136;-35.664;-63.766;2023-02-26T02:34:15;29.40;34.90
59975;DHT22;62136;-35.664;-63.766;2023-02-26T02:37:13;29.50;35.00
59975;DHT22;62136;-35.664;-63.766;2023-02-26T02:39:48;29.40;34.90
59975;DHT22;62136;-35.664;-63.766;2023-02-26T02:42:25;29.40;35.00
59975;DHT22;62136;-35.664;-63.766;2023-02-26T02:47:43;29.40;35.00
59975;DHT22;62136;-35.664;-63.766;2023-02-26T02:50:21;29.30;35.10
59975;DHT22;62136;-35.664;-63.766;2023-02-26T02:53:02;29.30;35.00
59975;DHT22;62136;-35.664;-63.766;2023-02-26T02:55:38;29.30;35.10
59975;DHT22;62136;-35.664;-63.766;2023-02-26T02:58:17;29.30;35.10
59975;DHT22;62136;-35.664;-63.766;2023-02-26T03:00:50;29.20;35.00
59975;DHT22;62136;-35.664;-63.766;2023-02-26T03:06:00;29.20;35.10
59975;DHT22;62136;-35.664;-63.766;2023-02-26T03:08:33;29.20;35.20
59975;DHT22;62136;-35.664;-63.766;2023-02-26T03:11:01;29.20;35.20
59975;DHT22;62136;-35.664;-63.766;2023-02-26T03:13:28;29.20;35.20
59975;DHT22;62136;-35.664;-63.766;2023-02-26T03:18:49;29.10;35.20
59975;DHT22;62136;-35.664;-63.766;2023-02-26T03:21:30;29.10;35.20
59975;DHT22;62136;-35.664;-63.766;2023-02-26T03:24:17;29.10;35.20
59975;DHT22;62136;-35.664;-63.766;2023-02-26T03:27:15;29.10;35.20
59975;DHT22;62136;-35.664;-63.766;2023-02-26T03:32:59;29.00;35.20
59975;DHT22;62136;-35.664;-63.766;2023-02-26T03:35:24;29.00;35.20
59975;DHT22;62136;-35.664;-63.766;2023-02-26T03:37:57;29.00;35.70
59975;DHT22;62136;-35.664;-63.766;2023-02-26T03:40:31;29.00;35.20
59975;DHT22;62136;-35.664;-63.766;2023-02-26T03:43:19;29.00;35.30
59975;DHT22;62136;-35.664;-63.766;2023-02-26T03:45:50;29.00;35.20
59975;DHT22;62136;-35.664;-63.766;2023-02-26T03:48:22;29.00;35.30
59975;DHT22;62136;-35.664;-63.766;2023-02-26T03:50:53;29.00;35.30
59975;DHT22;62136;-35.664;-63.766;2023-02-26T03:53:25;29.00;35.30
59975;DHT22;62136;-35.664;-63.766;2023-02-26T03:58:25;28.90;35.30
59975;DHT22;62136;-35.664;-63.766;2023-02-26T04:01:00;28.90;35.40
59975;DHT22;62136;-35.664;-63.766;2023-02-26T04:06:01;28.80;35.40
59975;DHT22;62136;-35.664;-63.766;2023-02-26T04:08:29;28.80;35.40
59975;DHT22;62136;-35.664;-63.766;2023-02-26T04:11:08;28.70;35.40
59975;DHT22;62136;-35.664;-63.766;2023-02-26T04:13:36;28.80;35.40
59975;DHT22;62136;-35.664;-63.766;2023-02-26T04:16:04;28.80;35.40
59975;DHT22;62136;-35.664;-63.766;2023-02-26T04:18:31;28.70;35.30
59975;DHT22;62136;-35.664;-63.766;2023-02-26T04:20:58;28.70;35.30
59975;DHT22;62136;-35.664;-63.766;2023-02-26T04:23:25;28.70;35.40
59975;DHT22;62136;-35.664;-63.766;2023-02-26T04:25:52;28.60;35.40
59975;DHT22;62136;-35.664;-63.766;2023-02-26T04:28:20;28.70;35.40
59975;DHT22;62136;-35.664;-63.766;2023-02-26T04:30:48;28.60;35.40
59975;DHT22;62136;-35.664;-63.766;2023-02-26T04:33:15;28.60;35.30
59975;DHT22;62136;-35.664;-63.766;2023-02-26T04:35:42;28.60;35.50
59975;DHT22;62136;-35.664;-63.766;2023-02-26T04:38:09;28.60;35.50
59975;DHT22;62136;-35.664;-63.766;2023-02-26T04:40:36;28.60;35.40
59975;DHT22;62136;-35.664;-63.766;2023-02-26T04:43:04;28.60;35.40
59975;DHT22;62136;-35.664;-63.766;2023-02-26T04:45:31;28.50;35.40
59975;DHT22;62136;-35.664;-63.766;2023-02-26T04:47:58;28.50;35.40
59975;DHT22;62136;-35.664;-63.766;2023-02-26T04:50:25;28.50;35.40
59975;DHT22;62136;-35.664;-63.766;2023-02-26T04:52:53;28.50;35.50
59975;DHT22;62136;-35.664;-63.766;2023-02-26T04:55:23;28.50;35.40
59975;DHT22;62136;-35.664;-63.766;2023-02-26T04:57:53;28.50;35.30
59975;DHT22;62136;-35.664;-63.766;2023-02-26T05:00:20;28.50;35.40
59975;DHT22;62136;-35.664;-63.766;2023-02-26T05:02:47;28.50;35.30
59975;DHT22;62136;-35.664;-63.766;2023-02-26T05:05:14;28.40;35.20
59975;DHT22;62136;-35.664;-63.766;2023-02-26T05:07:41;28.40;35.20
59975;DHT22;62136;-35.664;-63.766;2023-02-26T05:10:11;28.40;35.30
59975;DHT22;62136;-35.664;-63.766;2023-02-26T05:12:38;28.40;35.20
59975;DHT22;62136;-35.664;-63.766;2023-02-26T05:15:06;28.40;35.10
59975;DHT22;62136;-35.664;-63.766;2023-02-26T05:17:34;28.40;35.10
59975;DHT22;62136;-35.664;-63.766;2023-02-26T05:20:05;28.40;35.10
59975;DHT22;62136;-35.664;-63.766;2023-02-26T05:22:34;28.30;35.00
59975;DHT22;62136;-35.664;-63.766;2023-02-26T05:25:02;28.30;35.00
59975;DHT22;62136;-35.664;-63.766;2023-02-26T05:27:30;28.30;35.10
59975;DHT22;62136;-35.664;-63.766;2023-02-26T05:29:57;28.30;35.00
59975;DHT22;62136;-35.664;-63.766;2023-02-26T05:32:24;28.20;35.00
59975;DHT22;62136;-35.664;-63.766;2023-02-26T05:34:51;28.20;35.00
59975;DHT22;62136;-35.664;-63.766;2023-02-26T05:37:21;28.20;35.00
59975;DHT22;62136;-35.664;-63.766;2023-02-26T05:39:48;28.20;35.00
59975;DHT22;62136;-35.664;-63.766;2023-02-26T05:42:15;28.20;35.00
59975;DHT22;62136;-35.664;-63.766;2023-02-26T05:44:43;28.20;35.00
59975;DHT22;62136;-35.664;-63.766;2023-02-26T05:47:10;28.10;34.90
59975;DHT22;62136;-35.664;-63.766;2023-02-26T05:49:36;28.10;35.00
59975;DHT22;62136;-35.664;-63.766;2023-02-26T05:52:04;28.00;34.90
59975;DHT22;62136;-35.664;-63.766;2023-02-26T05:54:31;28.10;35.00
59975;DHT22;62136;-35.664;-63.766;2023-02-26T05:56:58;28.00;34.90
59975;DHT22;62136;-35.664;-63.766;2023-02-26T05:59:25;28.00;34.90
59975;DHT22;62136;-35.664;-63.766;2023-02-26T06:01:52;28.00;34.90
59975;DHT22;62136;-35.664;-63.766;2023-02-26T06:04:19;27.90;35.40
59975;DHT22;62136;-35.664;-63.766;2023-02-26T06:06:47;27.90;34.90
59975;DHT22;62136;-35.664;-63.766;2023-02-26T06:09:14;27.80;34.90
59975;DHT22;62136;-35.664;-63.766;2023-02-26T06:11:41;27.90;34.90
59975;DHT22;62136;-35.664;-63.766;2023-02-26T06:14:08;27.80;34.80
59975;DHT22;62136;-35.664;-63.766;2023-02-26T06:16:35;27.80;34.90
59975;DHT22;62136;-35.664;-63.766;2023-02-26T06:19:02;27.70;34.90
59975;DHT22;62136;-35.664;-63.766;2023-02-26T06:21:29;27.80;35.00
59975;DHT22;62136;-35.664;-63.766;2023-02-26T06:23:56;27.80;35.00
59975;DHT22;62136;-35.664;-63.766;2023-02-26T06:26:23;27.70;34.90
59975;DHT22;62136;-35.664;-63.766;2023-02-26T06:28:50;27.70;35.40
59975;DHT22;62136;-35.664;-63.766;2023-02-26T06:31:17;27.70;34.90
59975;DHT22;62136;-35.664;-63.766;2023-02-26T06:33:44;27.60;34.80
59975;DHT22;62136;-35.664;-63.766;2023-02-26T06:36:11;27.60;34.90
59975;DHT22;62136;-35.664;-63.766;2023-02-26T06:38:38;27.60;35.00
59975;DHT22;62136;-35.664;-63.766;2023-02-26T06:41:06;27.60;34.90
59975;DHT22;62136;-35.664;-63.766;2023-02-26T06:43:34;27.60;35.00
59975;DHT22;62136;-35.664;-63.766;2023-02-26T06:46:01;27.60;34.90
59975;DHT22;62136;-35.664;-63.766;2023-02-26T06:48:28;27.60;35.00
59975;DHT22;62136;-35.664;-63.766;2023-02-26T06:50:55;27.60;35.00
59975;DHT22;62136;-35.664;-63.766;2023-02-26T06:53:22;27.60;35.00
59975;DHT22;62136;-35.664;-63.766;2023-02-26T06:55:50;27.50;34.80
59975;DHT22;62136;-35.664;-63.766;2023-02-26T06:58:19;27.50;34.80
59975;DHT22;62136;-35.664;-63.766;2023-02-26T07:00:46;27.50;34.90
59975;DHT22;62136;-35.664;-63.766;2023-02-26T07:03:15;27.50;34.90
59975;DHT22;62136;-35.664;-63.766;2023-02-26T07:05:43;27.50;34.90
59975;DHT22;62136;-35.664;-63.766;2023-02-26T07:08:10;27.50;34.90
59975;DHT22;62136;-35.664;-63.766;2023-02-26T07:10:39;27.50;35.00
59975;DHT22;62136;-35.664;-63.766;2023-02-26T07:13:06;27.50;34.90
59975;DHT22;62136;-35.664;-63.766;2023-02-26T07:15:34;27.40;34.50
59975;DHT22;62136;-35.664;-63.766;2023-02-26T07:18:01;27.40;34.90
59975;DHT22;62136;-35.664;-63.766;2023-02-26T07:20:31;27.40;34.90
59975;DHT22;62136;-35.664;-63.766;2023-02-26T07:22:59;27.40;35.00
59975;DHT22;62136;-35.664;-63.766;2023-02-26T07:25:27;27.40;34.80
59975;DHT22;62136;-35.664;-63.766;2023-02-26T07:27:54;27.40;34.80
59975;DHT22;62136;-35.664;-63.766;2023-02-26T07:30:21;27.40;34.80
59975;DHT22;62136;-35.664;-63.766;2023-02-26T07:32:51;27.40;34.80
59975;DHT22;62136;-35.664;-63.766;2023-02-26T07:35:18;27.40;34.90
59975;DHT22;62136;-35.664;-63.766;2023-02-26T07:37:45;27.40;34.80
59975;DHT22;62136;-35.664;-63.766;2023-02-26T07:40:12;27.30;34.80
59975;DHT22;62136;-35.664;-63.766;2023-02-26T07:42:40;27.30;34.70
59975;DHT22;62136;-35.664;-63.766;2023-02-26T07:45:10;27.30;34.70
59975;DHT22;62136;-35.664;-63.766;2023-02-26T07:47:37;27.30;34.60
59975;DHT22;62136;-35.664;-63.766;2023-02-26T07:50:07;27.30;34.60
59975;DHT22;62136;-35.664;-63.766;2023-02-26T07:52:36;27.30;34.70
59975;DHT22;62136;-35.664;-63.766;2023-02-26T07:55:03;27.30;34.70
59975;DHT22;62136;-35.664;-63.766;2023-02-26T07:57:30;27.20;34.60
59975;DHT22;62136;-35.664;-63.766;2023-02-26T07:59:57;27.30;34.70
59975;DHT22;62136;-35.664;-63.766;2023-02-26T08:02:24;27.30;34.70
59975;DHT22;62136;-35.664;-63.766;2023-02-26T08:04:51;27.20;34.60
59975;DHT22;62136;-35.664;-63.766;2023-02-26T08:07:18;27.20;34.50
59975;DHT22;62136;-35.664;-63.766;2023-02-26T08:09:45;27.20;34.60
59975;DHT22;62136;-35.664;-63.766;2023-02-26T08:12:12;27.20;34.60
59975;DHT22;62136;-35.664;-63.766;2023-02-26T08:14:39;27.20;34.50
59975;DHT22;62136;-35.664;-63.766;2023-02-26T08:17:08;27.20;34.50
59975;DHT22;62136;-35.664;-63.766;2023-02-26T08:19:35;27.20;34.50
59975;DHT22;62136;-35.664;-63.766;2023-02-26T08:22:03;27.10;34.50
59975;DHT22;62136;-35.664;-63.766;2023-02-26T08:24:30;27.10;34.40
59975;DHT22;62136;-35.664;-63.766;2023-02-26T08:26:57;27.10;34.40
59975;DHT22;62136;-35.664;-63.766;2023-02-26T08:29:24;27.10;34.30
59975;DHT22;62136;-35.664;-63.766;2023-02-26T08:31:51;27.00;34.30
59975;DHT22;62136;-35.664;-63.766;2023-02-26T08:34:18;27.00;34.30
59975;DHT22;62136;-35.664;-63.766;2023-02-26T08:36:48;27.00;34.30
59975;DHT22;62136;-35.664;-63.766;2023-02-26T08:39:15;27.00;34.30
59975;DHT22;62136;-35.664;-63.766;2023-02-26T08:41:42;27.00;34.30
59975;DHT22;62136;-35.664;-63.766;2023-02-26T08:44:09;27.00;34.20
59975;DHT22;62136;-35.664;-63.766;2023-02-26T08:46:37;27.00;34.40
59975;DHT22;62136;-35.664;-63.766;2023-02-26T08:49:04;26.90;34.20
59975;DHT22;62136;-35.664;-63.766;2023-02-26T08:51:31;26.90;34.10
59975;DHT22;62136;-35.664;-63.766;2023-02-26T08:53:58;26.90;34.20
59975;DHT22;62136;-35.664;-63.766;2023-02-26T08:56:26;26.80;34.10
59975;DHT22;62136;-35.664;-63.766;2023-02-26T08:58:53;26.80;34.10
59975;DHT22;62136;-35.664;-63.766;2023-02-26T09:01:23;26.80;34.10
59975;DHT22;62136;-35.664;-63.766;2023-02-26T09:03:50;26.80;34.20
59975;DHT22;62136;-35.664;-63.766;2023-02-26T09:06:17;26.80;34.10
59975;DHT22;62136;-35.664;-63.766;2023-02-26T09:08:44;26.80;34.10
59975;DHT22;62136;-35.664;-63.766;2023-02-26T09:11:11;26.70;34.10
59975;DHT22;62136;-35.664;-63.766;2023-02-26T09:13:38;26.70;34.10
59975;DHT22;62136;-35.664;-63.766;2023-02-26T09:16:06;26.70;34.00
59975;DHT22;62136;-35.664;-63.766;2023-02-26T09:18:33;26.70;34.00
59975;DHT22;62136;-35.664;-63.766;2023-02-26T09:21:01;26.70;34.10
59975;DHT22;62136;-35.664;-63.766;2023-02-26T09:23:29;26.60;34.00
59975;DHT22;62136;-35.664;-63.766;2023-02-26T09:25:56;26.60;34.10
59975;DHT22;62136;-35.664;-63.766;2023-02-26T09:28:25;26.60;34.00
59975;DHT22;62136;-35.664;-63.766;2023-02-26T09:30:53;26.60;34.00
59975;DHT22;62136;-35.664;-63.766;2023-02-26T09:33:21;26.60;34.10
59975;DHT22;62136;-35.664;-63.766;2023-02-26T09:35:49;26.50;34.00
59975;DHT22;62136;-35.664;-63.766;2023-02-26T09:38:17;26.50;34.00
59975;DHT22;62136;-35.664;-63.766;2023-02-26T09:55:10;26.40;33.90
59975;DHT22;62136;-35.664;-63.766;2023-02-26T09:57:44;26.30;33.90
59975;DHT22;62136;-35.664;-63.766;2023-02-26T10:00:46;26.30;33.90
59975;DHT22;62136;-35.664;-63.766;2023-02-26T10:03:56;26.30;33.90
59975;DHT22;62136;-35.664;-63.766;2023-02-26T10:12:25;26.30;33.90
59975;DHT22;62136;-35.664;-63.766;2023-02-26T10:15:11;26.20;33.90
59975;DHT22;62136;-35.664;-63.766;2023-02-26T10:20:36;26.10;33.80
59975;DHT22;62136;-35.664;-63.766;2023-02-26T10:23:25;26.20;33.80
59975;DHT22;62136;-35.664;-63.766;2023-02-26T10:26:13;26.10;33.80
59975;DHT22;62136;-35.664;-63.766;2023-02-26T10:43:03;26.00;34.00
59975;DHT22;62136;-35.664;-63.766;2023-02-26T10:48:45;25.90;33.60
59975;DHT22;62136;-35.664;-63.766;2023-02-26T10:51:22;25.90;33.70
59975;DHT22;62136;-35.664;-63.766;2023-02-26T10:54:15;25.90;33.70
59975;DHT22;62136;-35.664;-63.766;2023-02-26T10:56:44;25.90;33.70
59975;DHT22;62136;-35.664;-63.766;2023-02-26T10:59:11;25.90;33.70
59975;DHT22;62136;-35.664;-63.766;2023-02-26T11:01:38;25.90;33.60
59975;DHT22;62136;-35.664;-63.766;2023-02-26T11:04:25;25.90;33.60
59975;DHT22;62136;-35.664;-63.766;2023-02-26T11:07:01;25.90;33.50
59975;DHT22;62136;-35.664;-63.766;2023-02-26T11:12:15;25.90;33.50
59975;DHT22;62136;-35.664;-63.766;2023-02-26T11:14:46;25.90;33.50
59975;DHT22;62136;-35.664;-63.766;2023-02-26T11:17:21;25.90;33.40
59975;DHT22;62136;-35.664;-63.766;2023-02-26T11:20:00;25.90;33.50
59975;DHT22;62136;-35.664;-63.766;2023-02-26T11:22:33;25.90;33.50
59975;DHT22;62136;-35.664;-63.766;2023-02-26T11:25:02;25.90;33.50
59975;DHT22;62136;-35.664;-63.766;2023-02-26T11:27:33;25.90;33.40
59975;DHT22;62136;-35.664;-63.766;2023-02-26T11:30:06;25.90;33.40
59975;DHT22;62136;-35.664;-63.766;2023-02-26T11:32:35;25.90;33.80
59975;DHT22;62136;-35.664;-63.766;2023-02-26T11:35:07;25.90;33.20
59975;DHT22;62136;-35.664;-63.766;2023-02-26T11:37:37;25.90;33.20
59975;DHT22;62136;-35.664;-63.766;2023-02-26T11:42:59;26.00;33.30
59975;DHT22;62136;-35.664;-63.766;2023-02-26T11:45:28;26.00;33.40
59975;DHT22;62136;-35.664;-63.766;2023-02-26T11:48:06;26.00;33.20
59975;DHT22;62136;-35.664;-63.766;2023-02-26T11:50:48;26.00;33.30
59975;DHT22;62136;-35.664;-63.766;2023-02-26T11:53:41;26.00;33.20
59975;DHT22;62136;-35.664;-63.766;2023-02-26T11:56:14;26.00;33.30
59975;DHT22;62136;-35.664;-63.766;2023-02-26T11:58:46;26.10;33.80
59975;DHT22;62136;-35.664;-63.766;2023-02-26T12:01:17;26.10;33.30
59975;DHT22;62136;-35.664;-63.766;2023-02-26T12:03:47;26.10;33.30
59975;DHT22;62136;-35.664;-63.766;2023-02-26T12:06:21;26.20;33.40
59975;DHT22;62136;-35.664;-63.766;2023-02-26T12:08:59;26.20;33.40
59975;DHT22;62136;-35.664;-63.766;2023-02-26T12:17:06;26.30;33.50
59975;DHT22;62136;-35.664;-63.766;2023-02-26T12:22:16;26.30;33.50
59975;DHT22;62136;-35.664;-63.766;2023-02-26T12:42:25;26.50;33.80
59975;DHT22;62136;-35.664;-63.766;2023-02-26T12:45:11;26.50;33.80
59975;DHT22;62136;-35.664;-63.766;2023-02-26T12:53:23;26.60;33.90
59975;DHT22;62136;-35.664;-63.766;2023-02-26T13:04:28;26.70;34.00
59975;DHT22;62136;-35.664;-63.766;2023-02-26T13:07:38;26.70;34.00
59975;DHT22;62136;-35.664;-63.766;2023-02-26T13:10:26;26.70;34.10
59975;DHT22;62136;-35.664;-63.766;2023-02-26T13:21:26;26.80;34.10
59975;DHT22;62136;-35.664;-63.766;2023-02-26T13:26:35;26.80;34.20
59975;DHT22;62136;-35.664;-63.766;2023-02-26T13:29:05;26.90;34.30
59975;DHT22;62136;-35.664;-63.766;2023-02-26T13:31:45;26.90;34.20
59975;DHT22;62136;-35.664;-63.766;2023-02-26T13:34:41;26.90;34.20
59975;DHT22;62136;-35.664;-63.766;2023-02-26T13:42:48;27.00;34.30
59975;DHT22;62136;-35.664;-63.766;2023-02-26T13:53:58;27.10;34.50
59975;DHT22;62136;-35.664;-63.766;2023-02-26T13:59:23;27.20;34.50
59975;DHT22;62136;-35.664;-63.766;2023-02-26T14:04:53;27.20;34.60
59975;DHT22;62136;-35.664;-63.766;2023-02-26T14:10:26;27.30;34.70
59975;DHT22;62136;-35.664;-63.766;2023-02-26T14:13:18;27.30;34.70
59975;DHT22;62136;-35.664;-63.766;2023-02-26T14:16:11;27.30;34.70
59975;DHT22;62136;-35.664;-63.766;2023-02-26T14:21:37;27.40;34.70
59975;DHT22;62136;-35.664;-63.766;2023-02-26T14:24:18;27.40;34.60
59975;DHT22;62136;-35.664;-63.766;2023-02-26T14:26:50;27.50;34.70
59975;DHT22;62136;-35.664;-63.766;2023-02-26T14:29:55;27.50;34.80
59975;DHT22;62136;-35.664;-63.766;2023-02-26T14:35:26;27.50;34.70
59975;DHT22;62136;-35.664;-63.766;2023-02-26T14:38:07;27.50;34.80
59975;DHT22;62136;-35.664;-63.766;2023-02-26T14:40:45;27.60;34.80
59975;DHT22;62136;-35.664;-63.766;2023-02-26T14:43:29;27.60;34.90
59975;DHT22;62136;-35.664;-63.766;2023-02-26T14:45:57;27.60;34.80
59975;DHT22;62136;-35.664;-63.766;2023-02-26T14:48:26;27.60;34.90
59975;DHT22;62136;-35.664;-63.766;2023-02-26T14:51:12;27.60;34.80
59975;DHT22;62136;-35.664;-63.766;2023-02-26T14:56:58;27.70;34.90
59975;DHT22;62136;-35.664;-63.766;2023-02-26T15:05:43;27.70;34.90
59975;DHT22;62136;-35.664;-63.766;2023-02-26T15:16:21;27.80;34.90
59975;DHT22;62136;-35.664;-63.766;2023-02-26T15:19:03;27.80;34.90
59975;DHT22;62136;-35.664;-63.766;2023-02-26T15:24:11;27.90;35.00
59975;DHT22;62136;-35.664;-63.766;2023-02-26T15:26:50;27.90;35.00
59975;DHT22;62136;-35.664;-63.766;2023-02-26T15:29:22;27.90;35.00
59975;DHT22;62136;-35.664;-63.766;2023-02-26T15:32:24;28.00;35.00
59975;DHT22;62136;-35.664;-63.766;2023-02-26T15:35:02;28.00;35.00
59975;DHT22;62136;-35.664;-63.766;2023-02-26T15:37:30;28.00;35.00
59975;DHT22;62136;-35.664;-63.766;2023-02-26T15:39:59;28.00;35.00
59975;DHT22;62136;-35.664;-63.766;2023-02-26T15:42:32;28.10;35.00
59975;DHT22;62136;-35.664;-63.766;2023-02-26T15:45:02;28.10;35.00
59975;DHT22;62136;-35.664;-63.766;2023-02-26T15:47:30;28.10;35.00
59975;DHT22;62136;-35.664;-63.766;2023-02-26T15:49:57;28.10;34.90
59975;DHT22;62136;-35.664;-63.766;2023-02-26T15:52:26;28.10;34.90
59975;DHT22;62136;-35.664;-63.766;2023-02-26T15:55:04;28.20;35.00
59975;DHT22;62136;-35.664;-63.766;2023-02-26T15:57:31;28.20;35.00
59975;DHT22;62136;-35.664;-63.766;2023-02-26T16:00:07;28.20;34.90
59975;DHT22;62136;-35.664;-63.766;2023-02-26T16:02:36;28.20;34.90
59975;DHT22;62136;-35.664;-63.766;2023-02-26T16:05:03;28.30;34.90
59975;DHT22;62136;-35.664;-63.766;2023-02-26T16:07:30;28.30;34.90
59975;DHT22;62136;-35.664;-63.766;2023-02-26T16:12:48;28.30;34.90
59975;DHT22;62136;-35.664;-63.766;2023-02-26T16:15:27;28.30;34.90
59975;DHT22;62136;-35.664;-63.766;2023-02-26T16:17:55;28.40;34.90
59975;DHT22;62136;-35.664;-63.766;2023-02-26T16:20:27;28.40;34.90
59975;DHT22;62136;-35.664;-63.766;2023-02-26T16:23:11;28.40;34.80
59975;DHT22;62136;-35.664;-63.766;2023-02-26T16:25:40;28.40;34.80
59975;DHT22;62136;-35.664;-63.766;2023-02-26T16:28:17;28.50;34.80
59975;DHT22;62136;-35.664;-63.766;2023-02-26T16:30:47;28.40;34.80
59975;DHT22;62136;-35.664;-63.766;2023-02-26T16:33:16;28.50;34.80
59975;DHT22;62136;-35.664;-63.766;2023-02-26T16:35:47;28.50;34.80
59975;DHT22;62136;-35.664;-63.766;2023-02-26T16:38:24;28.50;34.90
59975;DHT22;62136;-35.664;-63.766;2023-02-26T16:41:00;28.50;34.70
59975;DHT22;62136;-35.664;-63.766;2023-02-26T16:43:51;28.60;34.70
59975;DHT22;62136;-35.664;-63.766;2023-02-26T16:46:33;28.60;34.70
59975;DHT22;62136;-35.664;-63.766;2023-02-26T16:49:09;28.60;34.60
59975;DHT22;62136;-35.664;-63.766;2023-02-26T16:51:38;28.70;34.70
59975;DHT22;62136;-35.664;-63.766;2023-02-26T16:54:22;28.70;34.60
59975;DHT22;62136;-35.664;-63.766;2023-02-26T16:56:56;28.70;34.60
59975;DHT22;62136;-35.664;-63.766;2023-02-26T16:59:27;28.70;34.50
59975;DHT22;62136;-35.664;-63.766;2023-02-26T17:02:20;28.70;34.50
59975;DHT22;62136;-35.664;-63.766;2023-02-26T17:05:29;28.80;34.60
59975;DHT22;62136;-35.664;-63.766;2023-02-26T17:08:41;28.80;34.50
59975;DHT22;62136;-35.664;-63.766;2023-02-26T17:10:53;28.80;34.50
59975;DHT22;62136;-35.664;-63.766;2023-02-26T17:13:24;28.90;34.50
59975;DHT22;62136;-35.664;-63.766;2023-02-26T17:15:52;28.90;34.50
59975;DHT22;62136;-35.664;-63.766;2023-02-26T17:18:22;28.90;34.40
59975;DHT22;62136;-35.664;-63.766;2023-02-26T17:20:53;28.90;34.40
59975;DHT22;62136;-35.664;-63.766;2023-02-26T17:23:23;28.90;34.50
59975;DHT22;62136;-35.664;-63.766;2023-02-26T17:25:52;29.00;34.50
59975;DHT22;62136;-35.664;-63.766;2023-02-26T17:28:23;29.00;34.30
59975;DHT22;62136;-35.664;-63.766;2023-02-26T17:30:51;29.00;34.40
59975;DHT22;62136;-35.664;-63.766;2023-02-26T17:33:19;29.00;34.30
59975;DHT22;62136;-35.664;-63.766;2023-02-26T17:35:46;29.00;34.30
59975;DHT22;62136;-35.664;-63.766;2023-02-26T17:38:14;29.00;34.30
59975;DHT22;62136;-35.664;-63.766;2023-02-26T17:40:43;29.10;34.30
59975;DHT22;62136;-35.664;-63.766;2023-02-26T17:43:12;29.10;34.60
59975;DHT22;62136;-35.664;-63.766;2023-02-26T17:45:40;29.10;34.30
59975;DHT22;62136;-35.664;-63.766;2023-02-26T17:48:07;29.20;34.30
59975;DHT22;62136;-35.664;-63.766;2023-02-26T17:50:44;29.20;34.30
59975;DHT22;62136;-35.664;-63.766;2023-02-26T17:53:17;29.20;34.30
59975;DHT22;62136;-35.664;-63.766;2023-02-26T17:55:49;29.20;34.10
59975;DHT22;62136;-35.664;-63.766;2023-02-26T17:58:19;29.20;34.10
59975;DHT22;62136;-35.664;-63.766;2023-02-26T18:00:47;29.20;34.20
59975;DHT22;62136;-35.664;-63.766;2023-02-26T18:03:18;29.20;34.20
59975;DHT22;62136;-35.664;-63.766;2023-02-26T18:05:47;29.30;34.10
59975;DHT22;62136;-35.664;-63.766;2023-02-26T18:08:25;29.30;33.90
59975;DHT22;62136;-35.664;-63.766;2023-02-26T18:10:53;29.30;34.00
59975;DHT22;62136;-35.664;-63.766;2023-02-26T18:13:21;29.30;33.90
59975;DHT22;62136;-35.664;-63.766;2023-02-26T18:15:49;29.30;33.80
59975;DHT22;62136;-35.664;-63.766;2023-02-26T18:18:17;29.30;33.70
59975;DHT22;62136;-35.664;-63.766;2023-02-26T18:20:45;29.30;33.80
59975;DHT22;62136;-35.664;-63.766;2023-02-26T18:23:13;29.40;33.70
59975;DHT22;62136;-35.664;-63.766;2023-02-26T18:25:45;29.40;33.60
59975;DHT22;62136;-35.664;-63.766;2023-02-26T18:30:46;29.40;33.30
59975;DHT22;62136;-35.664;-63.766;2023-02-26T18:33:14;29.40;33.40
59975;DHT22;62136;-35.664;-63.766;2023-02-26T18:35:54;29.40;33.30
59975;DHT22;62136;-35.664;-63.766;2023-02-26T18:38:25;29.40;33.20
59975;DHT22;62136;-35.664;-63.766;2023-02-26T18:40:54;29.50;33.30
59975;DHT22;62136;-35.664;-63.766;2023-02-26T18:43:21;29.50;33.50
59975;DHT22;62136;-35.664;-63.766;2023-02-26T18:45:49;29.50;33.20
59975;DHT22;62136;-35.664;-63.766;2023-02-26T18:48:19;29.50;33.40
59975;DHT22;62136;-35.664;-63.766;2023-02-26T18:50:47;29.50;33.20